sensor_id;sensor_type;location;lat;lon;timestamp;pressure;altitude;pressure_sealevel;temperature;humidity
7052;BME280;3567;52.444;13.556;2022-08-11T00:00:41;102157.19;;;16.91;77.07
7052;BME280;3567;52.444;13.556;2022-08-11T00:03:10;102165.44;;;16.85;77.98
7052;BME280;3567;52.444;13.556;2022-08-11T00:05:49;102159.31;;;16.77;78.12
7052;BME280;3567;52.444;13.556;2022-08-11T00:08:26;102162.94;;;16.71;78.07
7052;BME280;3567;52.444;13.556;2022-08-11T00:11:04;102153.28;;;16.64;78.09
7052;BME280;3567;52.444;13.556;2022-08-11T00:13:39;102154.81;;;16.60;78.44
7052;BME280;3567;52.444;13.556;2022-08-11T00:18:44;102156.69;;;16.47;79.15
7052;BME280;3567;52.444;13.556;2022-08-11T00:21:10;102160.06;;;16.43;79.82
7052;BME280;3567;52.444;13.556;2022-08-11T00:23:42;102153.97;;;16.36;79.73
7052;BME280;3567;52.444;13.556;2022-08-11T00:26:08;102163.59;;;16.32;80.65
7052;BME280;3567;52.444;13.556;2022-08-11T00:28:35;102160.75;;;16.27;80.34
7052;BME280;3567;52.444;13.556;2022-08-11T00:31:06;102150.88;;;16.20;80.86
7052;BME280;3567;52.444;13.556;2022-08-11T00:33:43;102154.94;;;16.11;82.79
7052;BME280;3567;52.444;13.556;2022-08-11T00:36:12;102143.44;;;16.04;82.16
7052;BME280;3567;52.444;13.556;2022-08-11T00:38:40;102152.47;;;15.98;83.36
7052;BME280;3567;52.444;13.556;2022-08-11T00:41:33;102147.94;;;15.92;84.36
7052;BME280;3567;52.444;13.556;2022-08-11T00:47:16;102161.41;;;15.80;82.89
7052;BME280;3567;52.444;13.556;2022-08-11T01:04:19;102154.53;;;15.48;86.10
7052;BME280;3567;52.444;13.556;2022-08-11T01:12:43;102157.69;;;15.26;86.62
7052;BME280;3567;52.444;13.556;2022-08-11T01:15:45;102153.44;;;15.18;86.94
7052;BME280;3567;52.444;13.556;2022-08-11T01:39:18;102162.91;;;14.84;89.47
7052;BME280;3567;52.444;13.556;2022-08-11T01:53:44;102167.28;;;14.60;89.54
7052;BME280;3567;52.444;13.556;2022-08-11T01:56:28;102170.16;;;14.59;89.81
7052;BME280;3567;52.444;13.556;2022-08-11T01:59:23;102163.97;;;14.58;89.62
7052;BME280;3567;52.444;13.556;2022-08-11T02:02:07;102158.56;;;14.58;89.90
7052;BME280;3567;52.444;13.556;2022-08-11T02:04:42;102159.22;;;14.54;89.43
7052;BME280;3567;52.444;13.556;2022-08-11T02:10:25;102153.66;;;14.49;89.98
7052;BME280;3567;52.444;13.556;2022-08-11T02:15:49;102158.66;;;14.45;89.65
7052;BME280;3567;52.444;13.556;2022-08-11T02:18:37;102155.78;;;14.40;90.09
7052;BME280;3567;52.444;13.556;2022-08-11T02:21:49;102161.59;;;14.37;90.04
7052;BME280;3567;52.444;13.556;2022-08-11T02:24:44;102157.09;;;14.31;90.03
7052;BME280;3567;52.444;13.556;2022-08-11T02:27:18;102150.47;;;14.27;90.29
7052;BME280;3567;52.444;13.556;2022-08-11T02:30:07;102152.59;;;14.25;91.43
7052;BME280;3567;52.444;13.556;2022-08-11T02:36:13;102154.06;;;14.21;90.88
7052;BME280;3567;52.444;13.556;2022-08-11T02:44:43;102144.75;;;14.16;91.53
7052;BME280;3567;52.444;13.556;2022-08-11T02:47:44;102146.84;;;14.14;92.28
7052;BME280;3567;52.444;13.556;2022-08-11T02:50:40;102137.53;;;14.10;92.02
7052;BME280;3567;52.444;13.556;2022-08-11T02:53:29;102139.63;;;14.08;92.18
7052;BME280;3567;52.444;13.556;2022-08-11T02:56:20;102142.31;;;14.08;91.99
7052;BME280;3567;52.444;13.556;2022-08-11T02:59:03;102140.28;;;14.04;92.08
7052;BME280;3567;52.444;13.556;2022-08-11T03:02:10;102137.00;;;14.02;92.33
7052;BME280;3567;52.444;13.556;2022-08-11T03:07:31;102147.38;;;13.98;92.37
7052;BME280;3567;52.444;13.556;2022-08-11T03:12:49;102152.34;;;13.95;92.43
7052;BME280;3567;52.444;13.556;2022-08-11T03:16:14;102152.56;;;13.93;92.59
7052;BME280;3567;52.444;13.556;2022-08-11T03:19:11;102143.91;;;13.91;92.34
7052;BME280;3567;52.444;13.556;2022-08-11T03:21:51;102147.00;;;13.88;92.73
7052;BME280;3567;52.444;13.556;2022-08-11T03:32:40;102150.34;;;13.83;92.68
7052;BME280;3567;52.444;13.556;2022-08-11T03:35:09;102147.88;;;13.82;92.34
7052;BME280;3567;52.444;13.556;2022-08-11T03:37:47;102151.63;;;13.81;92.73
7052;BME280;3567;52.444;13.556;2022-08-11T03:43:47;102154.91;;;13.83;92.81
7052;BME280;3567;52.444;13.556;2022-08-11T03:46:42;102154.91;;;13.83;92.69
7052;BME280;3567;52.444;13.556;2022-08-11T03:49:24;102149.53;;;13.83;92.55
7052;BME280;3567;52.444;13.556;2022-08-11T03:52:15;102151.78;;;13.86;92.80
7052;BME280;3567;52.444;13.556;2022-08-11T03:54:54;102151.56;;;13.87;92.46
7052;BME280;3567;52.444;13.556;2022-08-11T04:04:36;102153.84;;;13.91;92.44
7052;BME280;3567;52.444;13.556;2022-08-11T04:15:16;102149.47;;;13.96;93.17
7052;BME280;3567;52.444;13.556;2022-08-11T04:35:03;102168.75;;;14.25;92.60
7052;BME280;3567;52.444;13.556;2022-08-11T04:37:57;102162.47;;;14.31;92.47
7052;BME280;3567;52.444;13.556;2022-08-11T04:49:27;102159.34;;;14.65;91.95
7052;BME280;3567;52.444;13.556;2022-08-11T04:56:04;102160.34;;;14.89;91.90
7052;BME280;3567;52.444;13.556;2022-08-11T05:02:09;102163.69;;;15.10;91.21
7052;BME280;3567;52.444;13.556;2022-08-11T05:11:06;102169.47;;;15.50;91.09
7052;BME280;3567;52.444;13.556;2022-08-11T05:13:44;102173.81;;;15.69;89.44
7052;BME280;3567;52.444;13.556;2022-08-11T05:16:50;102169.56;;;15.92;89.06
7052;BME280;3567;52.444;13.556;2022-08-11T05:19:35;102167.28;;;16.07;88.36
7052;BME280;3567;52.444;13.556;2022-08-11T05:22:21;102174.03;;;16.28;87.11
7052;BME280;3567;52.444;13.556;2022-08-11T05:25:09;102190.88;;;16.42;86.00
7052;BME280;3567;52.444;13.556;2022-08-11T05:28:10;102181.59;;;16.49;87.11
7052;BME280;3567;52.444;13.556;2022-08-11T05:30:58;102184.31;;;16.61;87.39
7052;BME280;3567;52.444;13.556;2022-08-11T05:33:48;102190.38;;;16.75;85.04
7052;BME280;3567;52.444;13.556;2022-08-11T05:36:39;102178.03;;;16.91;84.79
7052;BME280;3567;52.444;13.556;2022-08-11T05:39:16;102179.31;;;17.00;84.39
7052;BME280;3567;52.444;13.556;2022-08-11T05:42:04;102178.00;;;17.14;83.32
7052;BME280;3567;52.444;13.556;2022-08-11T05:44:50;102184.81;;;17.28;82.65
7052;BME280;3567;52.444;13.556;2022-08-11T05:47:36;102184.56;;;17.42;82.33
7052;BME280;3567;52.444;13.556;2022-08-11T05:50:21;102174.03;;;17.57;82.04
7052;BME280;3567;52.444;13.556;2022-08-11T05:53:12;102186.84;;;17.73;80.73
7052;BME280;3567;52.444;13.556;2022-08-11T05:55:58;102184.94;;;17.86;81.06
7052;BME280;3567;52.444;13.556;2022-08-11T05:58:43;102188.88;;;17.95;80.61
7052;BME280;3567;52.444;13.556;2022-08-11T06:01:12;102185.53;;;18.04;78.91
7052;BME280;3567;52.444;13.556;2022-08-11T06:03:42;102191.25;;;18.20;78.98
7052;BME280;3567;52.444;13.556;2022-08-11T06:06:28;102185.53;;;18.33;77.46
7052;BME280;3567;52.444;13.556;2022-08-11T06:08:57;102190.38;;;18.48;77.50
7052;BME280;3567;52.444;13.556;2022-08-11T06:11:24;102187.44;;;18.66;75.41
7052;BME280;3567;52.444;13.556;2022-08-11T06:13:51;102191.06;;;18.89;74.54
7052;BME280;3567;52.444;13.556;2022-08-11T06:16:22;102194.25;;;19.02;74.51
7052;BME280;3567;52.444;13.556;2022-08-11T06:18:49;102200.66;;;19.13;73.66
7052;BME280;3567;52.444;13.556;2022-08-11T06:21:15;102199.13;;;19.22;73.18
7052;BME280;3567;52.444;13.556;2022-08-11T06:23:44;102194.91;;;19.31;71.06
7052;BME280;3567;52.444;13.556;2022-08-11T06:26:10;102190.69;;;19.41;70.81
7052;BME280;3567;52.444;13.556;2022-08-11T06:28:38;102189.50;;;19.53;71.21
7052;BME280;3567;52.444;13.556;2022-08-11T06:31:17;102196.72;;;19.65;70.36
7052;BME280;3567;52.444;13.556;2022-08-11T06:33:54;102190.09;;;19.77;70.27
7052;BME280;3567;52.444;13.556;2022-08-11T06:36:39;102194.66;;;19.99;68.46
7052;BME280;3567;52.444;13.556;2022-08-11T06:39:26;102190.59;;;20.28;66.36
7052;BME280;3567;52.444;13.556;2022-08-11T06:42:05;102197.41;;;20.58;66.50
7052;BME280;3567;52.444;13.556;2022-08-11T06:44:39;102197.78;;;20.72;66.08
7052;BME280;3567;52.444;13.556;2022-08-11T06:47:08;102189.66;;;20.77;65.62
7052;BME280;3567;52.444;13.556;2022-08-11T06:49:41;102189.41;;;20.78;65.68
7052;BME280;3567;52.444;13.556;2022-08-11T06:52:32;102197.06;;;20.86;65.23
7052;BME280;3567;52.444;13.556;2022-08-11T06:55:05;102190.88;;;20.96;64.91
7052;BME280;3567;52.444;13.556;2022-08-11T06:57:36;102192.56;;;21.07;64.58
7052;BME280;3567;52.444;13.556;2022-08-11T07:00:22;102183.13;;;21.20;62.78
7052;BME280;3567;52.444;13.556;2022-08-11T07:02:57;102181.03;;;21.32;61.86
7052;BME280;3567;52.444;13.556;2022-08-11T07:05:44;102183.81;;;21.42;61.94
7052;BME280;3567;52.444;13.556;2022-08-11T07:08:35;102184.66;;;21.53;60.52
7052;BME280;3567;52.444;13.556;2022-08-11T07:14:29;102175.47;;;21.75;60.03
7052;BME280;3567;52.444;13.556;2022-08-11T07:17:16;102175.22;;;21.86;60.41
7052;BME280;3567;52.444;13.556;2022-08-11T07:19:52;102169.50;;;21.98;59.64
7052;BME280;3567;52.444;13.556;2022-08-11T07:22:37;102173.34;;;22.07;58.92
7052;BME280;3567;52.444;13.556;2022-08-11T07:25:22;102164.63;;;22.15;58.14
7052;BME280;3567;52.444;13.556;2022-08-11T07:28:13;102160.84;;;22.27;58.39
7052;BME280;3567;52.444;13.556;2022-08-11T07:31:05;102154.28;;;22.43;57.16
7052;BME280;3567;52.444;13.556;2022-08-11T07:33:47;102157.84;;;22.59;57.22
7052;BME280;3567;52.444;13.556;2022-08-11T07:36:15;102163.00;;;22.75;56.63
7052;BME280;3567;52.444;13.556;2022-08-11T07:38:48;102157.53;;;22.96;55.32
7052;BME280;3567;52.444;13.556;2022-08-11T07:41:21;102150.59;;;23.19;54.84
7052;BME280;3567;52.444;13.556;2022-08-11T07:43:54;102148.91;;;23.33;54.78
7052;BME280;3567;52.444;13.556;2022-08-11T07:46:20;102155.41;;;23.42;54.34
7052;BME280;3567;52.444;13.556;2022-08-11T07:49:07;102149.59;;;23.54;53.85
7052;BME280;3567;52.444;13.556;2022-08-11T07:51:53;102152.06;;;23.66;53.98
7052;BME280;3567;52.444;13.556;2022-08-11T07:54:38;102155.53;;;23.82;52.50
7052;BME280;3567;52.444;13.556;2022-08-11T07:57:07;102144.22;;;23.93;52.97
7052;BME280;3567;52.444;13.556;2022-08-11T07:59:51;102137.00;;;24.08;52.12
7052;BME280;3567;52.444;13.556;2022-08-11T08:02:36;102143.78;;;24.15;52.46
7052;BME280;3567;52.444;13.556;2022-08-11T08:05:20;102142.34;;;24.23;51.69
7052;BME280;3567;52.444;13.556;2022-08-11T08:08:06;102138.69;;;24.38;50.21
7052;BME280;3567;52.444;13.556;2022-08-11T08:10:53;102131.91;;;24.59;49.03
7052;BME280;3567;52.444;13.556;2022-08-11T08:13:39;102139.88;;;24.85;48.38
7052;BME280;3567;52.444;13.556;2022-08-11T08:16:24;102130.38;;;25.01;47.67
7052;BME280;3567;52.444;13.556;2022-08-11T08:19:14;102129.22;;;25.07;47.21
7052;BME280;3567;52.444;13.556;2022-08-11T08:21:40;102138.13;;;25.18;47.82
7052;BME280;3567;52.444;13.556;2022-08-11T08:24:06;102132.59;;;25.23;47.68
7052;BME280;3567;52.444;13.556;2022-08-11T08:26:32;102130.78;;;25.37;46.34
7052;BME280;3567;52.444;13.556;2022-08-11T08:29:17;102135.59;;;25.64;46.22
7052;BME280;3567;52.444;13.556;2022-08-11T08:32:03;102125.28;;;25.94;45.26
7052;BME280;3567;52.444;13.556;2022-08-11T08:34:29;102109.31;;;26.15;44.87
7052;BME280;3567;52.444;13.556;2022-08-11T08:36:58;102115.66;;;26.29;45.53
7052;BME280;3567;52.444;13.556;2022-08-11T08:39:24;102108.16;;;26.34;44.28
7052;BME280;3567;52.444;13.556;2022-08-11T08:41:53;102105.78;;;26.60;43.27
7052;BME280;3567;52.444;13.556;2022-08-11T08:44:20;102107.00;;;26.82;42.81
7052;BME280;3567;52.444;13.556;2022-08-11T08:46:53;102096.72;;;27.15;41.11
7052;BME280;3567;52.444;13.556;2022-08-11T08:49:32;102092.78;;;27.80;40.90
7052;BME280;3567;52.444;13.556;2022-08-11T08:52:02;102082.59;;;28.56;38.37
7052;BME280;3567;52.444;13.556;2022-08-11T08:54:34;102082.66;;;28.74;38.00
7052;BME280;3567;52.444;13.556;2022-08-11T08:57:03;102078.63;;;28.80;37.91
7052;BME280;3567;52.444;13.556;2022-08-11T08:59:31;102078.13;;;28.78;37.78
7052;BME280;3567;52.444;13.556;2022-08-11T09:02:03;102077.28;;;28.68;37.45
7052;BME280;3567;52.444;13.556;2022-08-11T09:04:30;102079.69;;;28.61;38.63
7052;BME280;3567;52.444;13.556;2022-08-11T09:07:06;102076.59;;;28.32;37.77
7052;BME280;3567;52.444;13.556;2022-08-11T09:09:33;102066.03;;;28.25;38.00
7052;BME280;3567;52.444;13.556;2022-08-11T09:11:59;102065.38;;;28.28;37.87
7052;BME280;3567;52.444;13.556;2022-08-11T09:14:32;102070.00;;;28.33;37.68
7052;BME280;3567;52.444;13.556;2022-08-11T09:17:19;102067.66;;;28.26;37.47
7052;BME280;3567;52.444;13.556;2022-08-11T09:19:46;102069.94;;;28.24;38.56
7052;BME280;3567;52.444;13.556;2022-08-11T09:22:17;102068.47;;;28.27;37.79
7052;BME280;3567;52.444;13.556;2022-08-11T09:25:03;102074.31;;;28.25;37.91
7052;BME280;3567;52.444;13.556;2022-08-11T09:27:48;102065.97;;;28.08;38.16
7052;BME280;3567;52.444;13.556;2022-08-11T09:30:14;102068.38;;;28.09;38.25
7052;BME280;3567;52.444;13.556;2022-08-11T09:32:39;102070.22;;;28.23;39.27
7052;BME280;3567;52.444;13.556;2022-08-11T09:35:06;102063.38;;;28.11;38.85
7052;BME280;3567;52.444;13.556;2022-08-11T09:37:33;102069.81;;;28.29;38.37
7052;BME280;3567;52.444;13.556;2022-08-11T09:40:18;102061.09;;;28.36;37.33
7052;BME280;3567;52.444;13.556;2022-08-11T09:43:02;102051.22;;;28.35;36.57
7052;BME280;3567;52.444;13.556;2022-08-11T09:45:50;102054.38;;;28.59;37.13
7052;BME280;3567;52.444;13.556;2022-08-11T09:48:18;102051.31;;;28.61;37.28
7052;BME280;3567;52.444;13.556;2022-08-11T09:50:52;102043.97;;;28.48;36.28
7052;BME280;3567;52.444;13.556;2022-08-11T09:53:20;102035.28;;;28.32;35.50
7052;BME280;3567;52.444;13.556;2022-08-11T09:55:46;102032.97;;;28.25;36.30
7052;BME280;3567;52.444;13.556;2022-08-11T09:58:13;102046.09;;;28.19;37.21
7052;BME280;3567;52.444;13.556;2022-08-11T10:00:41;102033.97;;;28.29;36.05
7052;BME280;3567;52.444;13.556;2022-08-11T10:03:21;102028.44;;;28.60;34.14
7052;BME280;3567;52.444;13.556;2022-08-11T10:05:50;102025.75;;;28.86;34.44
7052;BME280;3567;52.444;13.556;2022-08-11T10:08:37;102013.16;;;28.54;34.05
7052;BME280;3567;52.444;13.556;2022-08-11T10:11:05;102010.94;;;28.56;34.42
7052;BME280;3567;52.444;13.556;2022-08-11T10:13:33;102013.91;;;28.77;34.18
7052;BME280;3567;52.444;13.556;2022-08-11T10:16:25;102006.19;;;29.05;34.85
7052;BME280;3567;52.444;13.556;2022-08-11T10:18:53;102003.09;;;28.98;33.95
7052;BME280;3567;52.444;13.556;2022-08-11T10:21:29;102006.94;;;28.88;34.03
7052;BME280;3567;52.444;13.556;2022-08-11T10:23:59;101997.09;;;29.05;33.26
7052;BME280;3567;52.444;13.556;2022-08-11T10:26:45;101994.31;;;29.13;33.26
7052;BME280;3567;52.444;13.556;2022-08-11T10:32:09;101991.75;;;29.26;33.68
7052;BME280;3567;52.444;13.556;2022-08-11T10:34:55;101996.44;;;29.34;33.58
7052;BME280;3567;52.444;13.556;2022-08-11T10:37:22;102005.22;;;29.36;33.33
7052;BME280;3567;52.444;13.556;2022-08-11T10:39:50;101995.63;;;29.42;33.54
7052;BME280;3567;52.444;13.556;2022-08-11T10:42:16;101974.34;;;29.68;32.98
7052;BME280;3567;52.444;13.556;2022-08-11T10:45:03;101983.03;;;29.96;33.19
7052;BME280;3567;52.444;13.556;2022-08-11T10:47:51;101978.53;;;29.83;33.14
7052;BME280;3567;52.444;13.556;2022-08-11T10:50:17;101968.13;;;29.80;32.96
7052;BME280;3567;52.444;13.556;2022-08-11T10:53:02;101977.66;;;30.00;33.46
7052;BME280;3567;52.444;13.556;2022-08-11T10:55:47;101972.19;;;30.30;32.54
7052;BME280;3567;52.444;13.556;2022-08-11T10:58:32;101968.91;;;30.36;33.10
7052;BME280;3567;52.444;13.556;2022-08-11T11:03:48;101955.56;;;30.00;32.40
7052;BME280;3567;52.444;13.556;2022-08-11T11:09:16;101952.94;;;30.04;31.45
7052;BME280;3567;52.444;13.556;2022-08-11T11:11:47;101953.44;;;29.97;32.04
7052;BME280;3567;52.444;13.556;2022-08-11T11:14:33;101944.00;;;30.15;32.24
7052;BME280;3567;52.444;13.556;2022-08-11T11:17:25;101950.13;;;30.50;31.94
7052;BME280;3567;52.444;13.556;2022-08-11T11:19:56;101942.47;;;30.77;31.26
7052;BME280;3567;52.444;13.556;2022-08-11T11:22:24;101944.69;;;31.04;30.47
7052;BME280;3567;52.444;13.556;2022-08-11T11:25:52;101927.94;;;31.43;30.45
7052;BME280;3567;52.444;13.556;2022-08-11T11:30:36;101923.63;;;32.27;28.61
7052;BME280;3567;52.444;13.556;2022-08-11T11:35:54;101908.06;;;32.88;27.59
7052;BME280;3567;52.444;13.556;2022-08-11T11:38:27;101899.22;;;33.10;27.49
7052;BME280;3567;52.444;13.556;2022-08-11T11:40:53;101907.84;;;32.80;28.02
7052;BME280;3567;52.444;13.556;2022-08-11T11:43:37;101903.91;;;32.94;27.26
7052;BME280;3567;52.444;13.556;2022-08-11T11:46:04;101903.78;;;33.18;26.70
7052;BME280;3567;52.444;13.556;2022-08-11T11:48:31;101896.38;;;33.38;26.80
7052;BME280;3567;52.444;13.556;2022-08-11T11:50:57;101908.72;;;33.69;27.67
7052;BME280;3567;52.444;13.556;2022-08-11T11:53:23;101898.25;;;33.78;25.98
7052;BME280;3567;52.444;13.556;2022-08-11T11:55:49;101876.34;;;33.92;24.85
7052;BME280;3567;52.444;13.556;2022-08-11T11:58:16;101871.53;;;34.05;24.93
7052;BME280;3567;52.444;13.556;2022-08-11T12:01:00;101872.88;;;33.95;24.74
7052;BME280;3567;52.444;13.556;2022-08-11T12:03:46;101870.09;;;33.95;24.55
7052;BME280;3567;52.444;13.556;2022-08-11T12:06:13;101861.63;;;33.92;24.33
7052;BME280;3567;52.444;13.556;2022-08-11T12:08:42;101869.03;;;34.00;24.96
7052;BME280;3567;52.444;13.556;2022-08-11T12:11:10;101864.66;;;34.18;24.63
7052;BME280;3567;52.444;13.556;2022-08-11T12:13:57;101855.06;;;34.51;24.21
7052;BME280;3567;52.444;13.556;2022-08-11T12:16:24;101856.31;;;34.53;24.94
7052;BME280;3567;52.444;13.556;2022-08-11T12:18:53;101844.66;;;34.67;23.95
7052;BME280;3567;52.444;13.556;2022-08-11T12:21:19;101841.38;;;35.00;23.78
7052;BME280;3567;52.444;13.556;2022-08-11T12:23:47;101833.56;;;35.09;23.74
7052;BME280;3567;52.444;13.556;2022-08-11T12:26:32;101843.03;;;35.05;23.15
7052;BME280;3567;52.444;13.556;2022-08-11T12:29:16;101829.25;;;34.92;23.54
7052;BME280;3567;52.444;13.556;2022-08-11T12:31:44;101831.97;;;35.08;22.88
7052;BME280;3567;52.444;13.556;2022-08-11T12:34:13;101838.34;;;35.09;23.50
7052;BME280;3567;52.444;13.556;2022-08-11T12:36:41;101833.38;;;34.99;23.41
7052;BME280;3567;52.444;13.556;2022-08-11T12:39:09;101833.84;;;35.01;24.24
7052;BME280;3567;52.444;13.556;2022-08-11T12:41:37;101833.38;;;34.99;23.75
7052;BME280;3567;52.444;13.556;2022-08-11T12:44:24;101820.59;;;35.17;22.86
7052;BME280;3567;52.444;13.556;2022-08-11T12:47:09;101832.53;;;34.95;23.73
7052;BME280;3567;52.444;13.556;2022-08-11T12:49:43;101813.72;;;35.11;23.11
7052;BME280;3567;52.444;13.556;2022-08-11T12:52:34;101813.47;;;34.97;22.21
7052;BME280;3567;52.444;13.556;2022-08-11T12:55:13;101801.09;;;34.75;23.37
7052;BME280;3567;52.444;13.556;2022-08-11T12:58:05;101804.13;;;35.08;23.00
7052;BME280;3567;52.444;13.556;2022-08-11T13:00:42;101794.09;;;35.04;22.28
7052;BME280;3567;52.444;13.556;2022-08-11T13:03:27;101785.38;;;35.05;21.92
7052;BME280;3567;52.444;13.556;2022-08-11T13:06:12;101783.91;;;34.92;22.99
7052;BME280;3567;52.444;13.556;2022-08-11T13:08:39;101786.38;;;34.74;22.68
7052;BME280;3567;52.444;13.556;2022-08-11T13:11:07;101791.63;;;34.99;22.33
7052;BME280;3567;52.444;13.556;2022-08-11T13:13:53;101788.41;;;35.20;21.86
7052;BME280;3567;52.444;13.556;2022-08-11T13:16:22;101783.25;;;34.99;21.57
7052;BME280;3567;52.444;13.556;2022-08-11T13:18:48;101782.66;;;35.09;22.10
7052;BME280;3567;52.444;13.556;2022-08-11T13:21:15;101773.00;;;35.03;21.36
7052;BME280;3567;52.444;13.556;2022-08-11T13:23:41;101769.69;;;34.55;21.99
7052;BME280;3567;52.444;13.556;2022-08-11T13:26:07;101774.59;;;34.61;21.91
7052;BME280;3567;52.444;13.556;2022-08-11T13:28:38;101774.50;;;34.97;22.29
7052;BME280;3567;52.444;13.556;2022-08-11T13:31:05;101770.25;;;35.29;21.64
7052;BME280;3567;52.444;13.556;2022-08-11T13:33:49;101764.06;;;35.39;20.61
7052;BME280;3567;52.444;13.556;2022-08-11T13:36:20;101771.28;;;34.95;21.71
7052;BME280;3567;52.444;13.556;2022-08-11T13:38:47;101777.22;;;34.74;23.75
7052;BME280;3567;52.444;13.556;2022-08-11T13:41:13;101777.28;;;34.97;23.10
7052;BME280;3567;52.444;13.556;2022-08-11T13:43:58;101763.22;;;35.12;21.28
7052;BME280;3567;52.444;13.556;2022-08-11T13:46:24;101762.97;;;35.21;21.09
7052;BME280;3567;52.444;13.556;2022-08-11T13:48:52;101747.47;;;35.47;20.42
7052;BME280;3567;52.444;13.556;2022-08-11T13:51:19;101746.97;;;35.64;19.71
7052;BME280;3567;52.444;13.556;2022-08-11T13:53:56;101752.38;;;35.80;21.35
7052;BME280;3567;52.444;13.556;2022-08-11T13:56:23;101759.22;;;35.86;21.67
7052;BME280;3567;52.444;13.556;2022-08-11T13:58:49;101746.66;;;35.73;20.51
7052;BME280;3567;52.444;13.556;2022-08-11T14:01:18;101746.63;;;35.42;21.18
7052;BME280;3567;52.444;13.556;2022-08-11T14:03:46;101752.44;;;35.34;22.22
7052;BME280;3567;52.444;13.556;2022-08-11T14:06:13;101746.69;;;35.23;20.78
7052;BME280;3567;52.444;13.556;2022-08-11T14:08:39;101748.22;;;35.43;21.29
7052;BME280;3567;52.444;13.556;2022-08-11T14:11:07;101742.94;;;35.61;19.83
7052;BME280;3567;52.444;13.556;2022-08-11T14:13:52;101744.19;;;35.64;20.78
7052;BME280;3567;52.444;13.556;2022-08-11T14:16:27;101743.28;;;35.33;20.22
7052;BME280;3567;52.444;13.556;2022-08-11T14:18:59;101734.72;;;34.96;20.35
7052;BME280;3567;52.444;13.556;2022-08-11T14:21:27;101735.00;;;34.49;20.69
7052;BME280;3567;52.444;13.556;2022-08-11T14:24:15;101731.63;;;34.20;21.01
7052;BME280;3567;52.444;13.556;2022-08-11T14:26:42;101739.25;;;34.04;22.27
7052;BME280;3567;52.444;13.556;2022-08-11T14:29:15;101739.09;;;33.81;21.98
7052;BME280;3567;52.444;13.556;2022-08-11T14:31:46;101730.22;;;33.56;21.85
7052;BME280;3567;52.444;13.556;2022-08-11T14:34:13;101733.31;;;33.38;22.52
7052;BME280;3567;52.444;13.556;2022-08-11T14:36:44;101743.38;;;33.59;22.38
7052;BME280;3567;52.444;13.556;2022-08-11T14:39:16;101734.25;;;33.94;22.59
7052;BME280;3567;52.444;13.556;2022-08-11T14:41:45;101731.78;;;34.27;21.92
7052;BME280;3567;52.444;13.556;2022-08-11T14:44:31;101730.72;;;34.35;21.85
7052;BME280;3567;52.444;13.556;2022-08-11T14:47:16;101734.63;;;34.31;22.29
7052;BME280;3567;52.444;13.556;2022-08-11T14:49:43;101728.41;;;34.18;21.02
7052;BME280;3567;52.444;13.556;2022-08-11T14:52:11;101714.59;;;33.86;20.87
7052;BME280;3567;52.444;13.556;2022-08-11T14:54:41;101726.31;;;33.60;21.47
7052;BME280;3567;52.444;13.556;2022-08-11T14:57:26;101736.38;;;33.49;21.44
7052;BME280;3567;52.444;13.556;2022-08-11T14:59:53;101725.63;;;33.63;21.92
7052;BME280;3567;52.444;13.556;2022-08-11T15:02:22;101726.59;;;33.91;22.03
7052;BME280;3567;52.444;13.556;2022-08-11T15:05:06;101722.84;;;33.99;21.04
7052;BME280;3567;52.444;13.556;2022-08-11T15:07:33;101722.78;;;34.14;22.14
7052;BME280;3567;52.444;13.556;2022-08-11T15:10:03;101709.09;;;34.25;19.93
7052;BME280;3567;52.444;13.556;2022-08-11T15:12:30;101713.63;;;33.95;21.01
7052;BME280;3567;52.444;13.556;2022-08-11T15:14:56;101704.28;;;33.68;21.48
7052;BME280;3567;52.444;13.556;2022-08-11T15:17:41;101705.94;;;33.53;20.83
7052;BME280;3567;52.444;13.556;2022-08-11T15:20:13;101703.06;;;33.84;20.43
7052;BME280;3567;52.444;13.556;2022-08-11T15:22:58;101711.50;;;34.07;22.70
7052;BME280;3567;52.444;13.556;2022-08-11T15:25:45;101705.19;;;34.30;21.99
7052;BME280;3567;52.444;13.556;2022-08-11T15:28:14;101696.34;;;34.24;20.72
7052;BME280;3567;52.444;13.556;2022-08-11T15:31:01;101689.09;;;34.39;20.61
7052;BME280;3567;52.444;13.556;2022-08-11T15:34:08;101687.59;;;34.64;20.01
7052;BME280;3567;52.444;13.556;2022-08-11T15:37:00;101690.88;;;34.93;20.99
7052;BME280;3567;52.444;13.556;2022-08-11T15:39:48;101683.78;;;34.96;20.56
7052;BME280;3567;52.444;13.556;2022-08-11T15:42:37;101674.75;;;34.79;19.47
7052;BME280;3567;52.444;13.556;2022-08-11T15:45:23;101673.78;;;34.29;19.99
7052;BME280;3567;52.444;13.556;2022-08-11T15:48:10;101681.09;;;34.14;19.44
7052;BME280;3567;52.444;13.556;2022-08-11T15:50:39;101684.91;;;33.91;19.40
7052;BME280;3567;52.444;13.556;2022-08-11T15:53:22;101676.97;;;34.08;20.21
7052;BME280;3567;52.444;13.556;2022-08-11T15:55:50;101678.25;;;34.34;19.92
7052;BME280;3567;52.444;13.556;2022-08-11T15:58:17;101671.63;;;34.61;18.89
7052;BME280;3567;52.444;13.556;2022-08-11T16:01:02;101664.72;;;34.52;18.46
7052;BME280;3567;52.444;13.556;2022-08-11T16:03:54;101659.56;;;34.11;19.81
7052;BME280;3567;52.444;13.556;2022-08-11T16:07:00;101661.06;;;33.89;19.49
7052;BME280;3567;52.444;13.556;2022-08-11T16:09:36;101653.81;;;33.85;18.35
7052;BME280;3567;52.444;13.556;2022-08-11T16:12:05;101668.38;;;33.78;19.16
7052;BME280;3567;52.444;13.556;2022-08-11T16:14:36;101653.47;;;33.67;18.55
7052;BME280;3567;52.444;13.556;2022-08-11T16:17:24;101662.13;;;33.66;20.35
7052;BME280;3567;52.444;13.556;2022-08-11T16:19:52;101659.59;;;33.76;20.22
7052;BME280;3567;52.444;13.556;2022-08-11T16:22:29;101654.50;;;33.78;19.02
7052;BME280;3567;52.444;13.556;2022-08-11T16:25:09;101654.41;;;33.40;19.37
7052;BME280;3567;52.444;13.556;2022-08-11T16:27:43;101657.97;;;32.89;19.59
7052;BME280;3567;52.444;13.556;2022-08-11T16:30:09;101651.31;;;32.18;20.01
7052;BME280;3567;52.444;13.556;2022-08-11T16:32:38;101653.56;;;31.60;20.03
7052;BME280;3567;52.444;13.556;2022-08-11T16:35:09;101664.44;;;31.16;21.16